Time;durP1;ratioP1;P1;durP2;ratioP2;P2;SDS_P1;SDS_P2;PMS_P1;PMS_P2;Temp;Humidity;BMP_temperature;BMP_pressure;BME280_temperature;BME280_humidity;BME280_pressure;Samples;Min_cycle;Max_cycle;Signal;HPM_P1;HPM_P2
2022/05/04 00:00:46;;;;;;;3.38;1.80;;;19.70;48.40;;;;;;5070022;28;20083;-72
2022/05/04 00:03:12;;;;;;;3.05;1.50;;;19.80;48.50;;;;;;5087088;28;20047;-73
2022/05/04 00:05:37;;;;;;;4.55;1.88;;;19.80;48.50;;;;;;5079318;28;20044;-71
2022/05/04 00:08:03;;;;;;;3.97;1.85;;;19.70;49.20;;;;;;5100827;28;20098;-72
2022/05/04 00:10:30;;;;;;;3.50;1.70;;;19.70;48.40;;;;;;5099996;28;20036;-72
2022/05/04 00:12:57;;;;;;;4.38;1.73;;;19.80;48.40;;;;;;5093027;28;20044;-76
2022/05/04 00:15:23;;;;;;;3.85;2.00;;;19.70;48.30;;;;;;5103811;28;20533;-77
2022/05/04 00:17:48;;;;;;;3.60;1.70;;;19.70;48.30;;;;;;5092191;28;20079;-73
2022/05/04 00:20:14;;;;;;;3.15;1.50;;;19.70;48.30;;;;;;5090128;28;20154;-74
2022/05/04 00:22:40;;;;;;;3.60;1.73;;;19.70;48.30;;;;;;5098630;28;20036;-71
2022/05/04 00:25:06;;;;;;;3.17;1.70;;;19.70;48.30;;;;;;5105984;28;20096;-71
2022/05/04 00:27:33;;;;;;;2.97;1.55;;;19.70;48.30;;;;;;5095789;28;20098;-72
2022/05/04 00:29:58;;;;;;;5.40;1.80;;;19.70;48.20;;;;;;5086327;28;20381;-73
2022/05/04 00:32:24;;;;;;;4.43;1.90;;;19.70;48.30;;;;;;5091567;28;20032;-73
2022/05/04 00:34:50;;;;;;;3.10;1.58;;;19.70;48.30;;;;;;5107945;28;20031;-73
2022/05/04 00:37:15;;;;;;;3.88;2.10;;;19.70;48.30;;;;;;5090684;28;20048;-73
2022/05/04 00:39:41;;;;;;;4.32;1.70;;;19.70;48.20;;;;;;5086689;28;20463;-73
2022/05/04 00:42:08;;;;;;;4.22;1.67;;;19.70;48.20;;;;;;5089017;28;20035;-73
2022/05/04 00:44:33;;;;;;;3.90;1.70;;;19.70;48.20;;;;;;5087414;28;20525;-72
2022/05/04 00:46:59;;;;;;;3.28;1.85;;;19.70;48.20;;;;;;5061700;28;20115;-72
2022/05/04 00:49:24;;;;;;;3.03;1.50;;;19.60;48.10;;;;;;5083565;28;20084;-72
2022/05/04 00:51:50;;;;;;;3.90;1.75;;;19.70;48.10;;;;;;5087927;28;20154;-71
2022/05/04 00:54:16;;;;;;;5.05;1.65;;;19.70;48.10;;;;;;5092698;28;20036;-71
2022/05/04 00:56:42;;;;;;;3.50;1.70;;;19.70;48.10;;;;;;5093276;28;20405;-73
2022/05/04 00:59:07;;;;;;;3.28;1.73;;;19.70;48.10;;;;;;5087803;28;20075;-73
2022/05/04 01:01:33;;;;;;;4.32;1.95;;;19.70;48.10;;;;;;5086142;28;20123;-76
2022/05/04 01:03:59;;;;;;;4.63;1.70;;;19.70;48.10;;;;;;5085766;28;20036;-76
2022/05/04 01:06:26;;;;;;;3.45;1.40;;;19.70;48.00;;;;;;5087044;28;20116;-77
2022/05/04 01:08:53;;;;;;;3.10;1.90;;;19.70;48.10;;;;;;5087483;28;20036;-73
2022/05/04 01:11:20;;;;;;;4.40;1.92;;;19.70;48.10;;;;;;5081958;28;20062;-72
2022/05/04 01:14:02;;;;;;;2.42;1.48;;;19.60;48.00;;;;;;5086547;28;20830;-73
2022/05/04 01:16:29;;;;;;;4.32;1.90;;;19.70;48.00;;;;;;5086724;28;20043;-73
2022/05/04 01:18:55;;;;;;;2.42;1.90;;;19.70;48.10;;;;;;5095829;28;20044;-71
2022/05/04 01:21:21;;;;;;;2.65;1.35;;;19.70;48.00;;;;;;5083685;28;20062;-72
2022/05/04 01:23:47;;;;;;;2.42;1.50;;;19.60;48.00;;;;;;5087291;28;20383;-70
2022/05/04 01:26:16;;;;;;;2.92;1.67;;;19.70;48.00;;;;;;5085377;28;20897;-73
2022/05/04 01:28:46;;;;;;;3.03;1.50;;;19.60;48.00;;;;;;5089402;28;20040;-73
2022/05/04 01:31:11;;;;;;;2.20;1.58;;;19.60;48.00;;;;;;5093506;28;20040;-71
2022/05/04 01:33:38;;;;;;;4.38;1.95;;;19.60;48.00;;;;;;5095403;28;20719;-71
2022/05/04 01:36:04;;;;;;;5.20;1.58;;;19.70;48.00;;;;;;5086966;28;20086;-73
2022/05/04 01:38:29;;;;;;;3.33;1.63;;;19.70;48.00;;;;;;5087536;28;20127;-72
2022/05/04 01:40:55;;;;;;;4.18;1.73;;;19.70;48.00;;;;;;5086736;28;20187;-72
2022/05/04 01:43:21;;;;;;;2.60;1.50;;;19.60;48.00;;;;;;5111636;27;20051;-72
2022/05/04 01:45:46;;;;;;;2.90;1.67;;;19.60;47.90;;;;;;5078703;28;20036;-75
2022/05/04 01:48:12;;;;;;;3.47;1.60;;;19.60;47.90;;;;;;5085231;28;20036;-72
2022/05/04 01:50:38;;;;;;;3.30;1.65;;;19.60;47.90;;;;;;5089239;28;20506;-72
2022/05/04 01:53:04;;;;;;;4.00;1.40;;;19.70;48.00;;;;;;5090743;28;20147;-72
2022/05/04 01:55:32;;;;;;;1.92;1.30;;;19.60;47.80;;;;;;5077505;28;20032;-73
2022/05/04 01:57:58;;;;;;;;;;;19.70;47.90;;;;;;5081052;28;20093;-72
2022/05/04 02:00:23;;;;;;;2.83;1.67;;;19.60;47.80;;;;;;5089902;28;19923;-74
2022/05/04 02:02:49;;;;;;;4.45;1.50;;;19.60;47.80;;;;;;5087214;28;20031;-71
2022/05/04 02:05:16;;;;;;;3.15;1.60;;;19.60;47.80;;;;;;5085252;28;20051;-76
2022/05/04 02:07:43;;;;;;;4.25;1.75;;;19.60;47.80;;;;;;5084916;28;20139;-73
2022/05/04 02:10:10;;;;;;;2.75;1.50;;;19.60;47.80;;;;;;5091901;28;20551;-71
2022/05/04 02:12:36;;;;;;;4.20;1.67;;;19.60;47.80;;;;;;5085264;28;20056;-76
2022/05/04 02:15:08;;;;;;;2.65;1.50;;;19.60;47.80;;;;;;5086489;28;20068;-74
2022/05/04 02:17:34;;;;;;;2.55;1.60;;;19.60;47.80;;;;;;5093297;28;20044;-72
2022/05/04 02:20:00;;;;;;;3.47;1.70;;;19.60;47.80;;;;;;5096815;28;20048;-73
2022/05/04 02:22:25;;;;;;;2.10;1.35;;;19.60;47.80;;;;;;5095516;28;20032;-78
2022/05/04 02:24:51;;;;;;;3.35;1.70;;;19.60;47.80;;;;;;5091419;28;20587;-72
2022/05/04 02:27:17;;;;;;;3.38;1.70;;;19.60;47.70;;;;;;5096705;28;20051;-71
2022/05/04 02:29:42;;;;;;;3.88;1.60;;;19.60;47.80;;;;;;5083079;28;20105;-74
2022/05/04 02:32:08;;;;;;;3.55;1.70;;;19.60;47.70;;;;;;5085258;28;20044;-73
2022/05/04 02:34:34;;;;;;;2.55;1.60;;;19.60;47.70;;;;;;5087612;28;20040;-72
2022/05/04 02:39:43;;;;;;;2.75;1.45;;;19.60;47.80;;;;;;5082862;28;20060;-71
2022/05/04 02:42:10;;;;;;;4.05;1.90;;;19.50;47.60;;;;;;5085221;28;20420;-71
2022/05/04 02:44:36;;;;;;;2.58;1.48;;;19.60;47.70;;;;;;5099028;27;20055;-70
2022/05/04 02:47:01;;;;;;;3.47;1.60;;;19.50;47.70;;;;;;5086648;28;20047;-75
2022/05/04 02:49:27;;;;;;;2.25;1.60;;;19.60;47.70;;;;;;5088596;28;20047;-73
2022/05/04 02:51:52;;;;;;;3.90;1.50;;;19.60;47.70;;;;;;5113332;27;20403;-73
2022/05/04 02:54:18;;;;;;;2.92;1.60;;;19.60;47.70;;;;;;5080725;28;20040;-72
2022/05/04 02:56:43;;;;;;;2.85;1.38;;;19.60;47.70;;;;;;5069725;28;20040;-72
2022/05/04 02:59:09;;;;;;;3.50;1.65;;;19.60;47.70;;;;;;5094726;28;20047;-73
2022/05/04 03:04:19;;;;;;;2.45;1.35;;;19.60;47.70;;;;;;5114828;27;20140;-72
2022/05/04 03:06:44;;;;;;;4.13;1.60;;;19.50;47.60;;;;;;5084461;28;20126;-72
2022/05/04 03:09:11;;;;;;;2.95;1.33;;;19.50;47.60;;;;;;5076718;28;20455;-71
2022/05/04 03:11:55;;;;;;;2.50;1.55;;;19.60;47.70;;;;;;5083422;28;20036;-71
2022/05/04 03:14:25;;;;;;;2.78;1.50;;;19.50;47.70;;;;;;5081546;28;20143;-71
2022/05/04 03:16:52;;;;;;;2.58;1.55;;;19.50;47.60;;;;;;5084521;28;20086;-71
2022/05/04 03:19:18;;;;;;;2.67;1.58;;;19.50;47.60;;;;;;5082585;28;20056;-72
2022/05/04 03:21:43;;;;;;;4.50;1.40;;;19.60;47.70;;;;;;5093963;28;20042;-72
2022/05/04 03:24:09;;;;;;;2.83;1.55;;;19.50;47.60;;;;;;5085170;28;20062;-73
2022/05/04 03:26:35;;;;;;;4.20;1.63;;;19.50;47.60;;;;;;5092685;28;20040;-72
2022/05/04 03:29:02;;;;;;;4.95;1.30;;;19.50;47.60;;;;;;5089420;28;20035;-72
2022/05/04 03:31:28;;;;;;;5.00;1.40;;;19.50;47.60;;;;;;5084228;28;20060;-72
2022/05/04 03:33:53;;;;;;;2.05;1.50;;;19.50;47.60;;;;;;5104067;28;20050;-71
2022/05/04 03:36:19;;;;;;;3.83;1.50;;;19.50;47.60;;;;;;5093298;28;20080;-71
2022/05/04 03:38:45;;;;;;;3.70;1.30;;;19.50;47.60;;;;;;5094788;28;20477;-71
2022/05/04 03:41:11;;;;;;;3.75;1.42;;;19.50;47.60;;;;;;5103083;28;20093;-71
2022/05/04 03:43:36;;;;;;;5.22;1.80;;;19.50;47.60;;;;;;5101120;28;20160;-72
2022/05/04 03:46:25;;;;;;;5.15;1.45;;;19.50;47.60;;;;;;5104197;28;20506;-72
2022/05/04 03:48:56;;;;;;;2.00;1.27;;;19.50;47.50;;;;;;5092115;28;20052;-71
2022/05/04 03:51:22;;;;;;;3.03;1.50;;;19.50;47.50;;;;;;5093619;28;20047;-72
2022/05/04 03:53:50;;;;;;;3.85;1.45;;;19.50;47.60;;;;;;5086329;28;20033;-71
2022/05/04 03:56:16;;;;;;;3.00;1.40;;;19.50;47.50;;;;;;5085838;28;20523;-72
2022/05/04 03:58:42;;;;;;;6.30;1.73;;;19.50;47.50;;;;;;5090596;28;20068;-70
2022/05/04 04:01:08;;;;;;;4.65;1.65;;;19.50;47.50;;;;;;5074071;28;20052;-72
2022/05/04 04:03:37;;;;;;;2.50;1.38;;;19.50;47.50;;;;;;5102616;28;20047;-71
2022/05/04 04:06:03;;;;;;;2.20;1.35;;;19.50;47.50;;;;;;5107890;28;20040;-71
2022/05/04 04:08:29;;;;;;;2.92;1.42;;;19.50;47.50;;;;;;5095371;28;20042;-74
2022/05/04 04:10:55;;;;;;;3.95;1.70;;;19.50;47.50;;;;;;5099871;28;20056;-71
2022/05/04 04:13:21;;;;;;;2.70;1.40;;;19.50;47.50;;;;;;5098279;28;20046;-72
2022/05/04 04:15:47;;;;;;;2.50;1.50;;;19.50;47.50;;;;;;5106071;28;20560;-73
2022/05/04 04:18:13;;;;;;;3.40;1.40;;;19.50;47.50;;;;;;5094889;28;20082;-72
2022/05/04 04:23:23;;;;;;;2.15;1.35;;;19.50;47.40;;;;;;5117409;27;20139;-70
2022/05/04 04:25:48;;;;;;;3.22;1.50;;;19.50;47.50;;;;;;5088647;28;20175;-71
2022/05/04 04:28:14;;;;;;;3.15;1.63;;;19.50;47.40;;;;;;5084374;28;20632;-71
2022/05/04 04:30:40;;;;;;;4.43;1.58;;;19.50;47.40;;;;;;5118303;27;20043;-72
2022/05/04 04:33:06;;;;;;;1.90;1.40;;;19.50;47.40;;;;;;5086231;28;20052;-72
2022/05/04 04:35:33;;;;;;;3.08;1.38;;;19.50;47.40;;;;;;5095101;28;20048;-70
2022/05/04 04:37:59;;;;;;;2.60;1.40;;;19.50;47.40;;;;;;5103465;28;20039;-71
2022/05/04 04:40:25;;;;;;;4.00;1.40;;;19.50;47.40;;;;;;5092701;28;20082;-71
2022/05/04 04:42:51;;;;;;;2.78;1.50;;;19.50;47.40;;;;;;5090317;28;20074;-71
2022/05/04 04:45:17;;;;;;;5.82;1.65;;;19.50;47.40;;;;;;5091917;28;20421;-71
2022/05/04 04:47:46;;;;;;;2.25;1.48;;;19.50;47.40;;;;;;5093055;28;20051;-74
2022/05/04 04:50:11;;;;;;;2.78;1.33;;;19.50;47.40;;;;;;5085558;28;20055;-72
2022/05/04 04:52:37;;;;;;;2.78;1.42;;;19.50;47.40;;;;;;5088211;28;20036;-74
2022/05/04 04:55:04;;;;;;;1.98;1.38;;;19.50;47.40;;;;;;5086334;28;20090;-78
2022/05/04 04:57:29;;;;;;;3.22;1.50;;;19.50;47.40;;;;;;5085676;28;20460;-74
2022/05/04 04:59:55;;;;;;;3.28;1.38;;;19.50;47.30;;;;;;5087248;28;20550;-75
2022/05/04 05:02:20;;;;;;;4.03;1.52;;;19.50;47.40;;;;;;5084237;28;20047;-74
2022/05/04 05:04:46;;;;;;;3.97;1.40;;;19.50;47.30;;;;;;5088284;28;20036;-73
2022/05/04 05:07:12;;;;;;;2.92;1.40;;;19.50;47.40;;;;;;5095966;28;20036;-74
2022/05/04 05:09:37;;;;;;;3.10;1.50;;;19.50;47.40;;;;;;5086340;28;20093;-76
2022/05/04 05:12:03;;;;;;;2.38;1.42;;;19.50;47.40;;;;;;5097528;28;20499;-76
2022/05/04 05:17:13;;;;;;;3.35;1.40;;;19.50;47.40;;;;;;5080782;28;20036;-74
2022/05/04 05:19:38;;;;;;;2.72;1.30;;;19.50;47.40;;;;;;5101978;28;20054;-76
2022/05/04 05:22:04;;;;;;;2.75;1.17;;;19.50;47.40;;;;;;5101177;28;20048;-75
2022/05/04 05:24:33;;;;;;;;;;;19.50;47.40;;;;;;5103000;28;20147;-72
2022/05/04 05:26:58;;;;;;;3.22;1.60;;;19.50;47.40;;;;;;5099322;28;20022;-72
2022/05/04 05:29:24;;;;;;;1.83;1.20;;;19.50;47.40;;;;;;5084284;28;20051;-74
2022/05/04 05:31:49;;;;;;;4.70;1.33;;;19.50;47.40;;;;;;5082967;28;20071;-72
2022/05/04 05:34:15;;;;;;;2.33;1.20;;;19.50;47.40;;;;;;5078827;28;20048;-73
2022/05/04 05:36:40;;;;;;;4.93;1.40;;;19.50;47.40;;;;;;5079031;28;20097;-72
2022/05/04 05:39:06;;;;;;;3.10;1.40;;;19.50;47.50;;;;;;5089423;28;20032;-69
2022/05/04 05:41:31;;;;;;;3.90;1.67;;;19.50;47.60;;;;;;5081278;28;20036;-72
2022/05/04 05:43:57;;;;;;;4.47;1.30;;;19.50;47.80;;;;;;5087833;28;20118;-71
2022/05/04 05:46:22;;;;;;;3.70;1.42;;;19.50;47.80;;;;;;5080237;28;20052;-68
2022/05/04 05:48:48;;;;;;;5.32;1.38;;;19.50;47.80;;;;;;5084472;28;20507;-69
2022/05/04 05:51:14;;;;;;;4.15;1.40;;;19.60;48.00;;;;;;5063379;28;20144;-68
2022/05/04 05:53:39;;;;;;;5.75;1.50;;;19.60;48.00;;;;;;5096572;28;20081;-72
2022/05/04 05:56:06;;;;;;;4.53;1.50;;;19.60;48.10;;;;;;5117420;27;20052;-70
2022/05/04 05:58:32;;;;;;;2.92;1.58;;;19.60;48.00;;;;;;5081443;28;20039;-79
2022/05/04 06:00:58;;;;;;;2.63;1.33;;;19.60;48.10;;;;;;5079677;28;20051;-68
2022/05/04 06:03:23;;;;;;;2.88;1.38;;;19.60;48.00;;;;;;5077325;28;20076;-72
2022/05/04 06:05:49;;;;;;;2.75;1.30;;;19.60;48.00;;;;;;5082479;28;20044;-70
2022/05/04 06:08:14;;;;;;;2.58;1.30;;;19.70;48.10;;;;;;5078672;28;20134;-69
2022/05/04 06:10:40;;;;;;;3.35;1.30;;;19.70;48.00;;;;;;5084759;28;20074;-70
2022/05/04 06:13:06;;;;;;;4.22;1.60;;;19.70;48.00;;;;;;5087666;28;20189;-70
2022/05/04 06:15:32;;;;;;;4.40;1.60;;;19.70;48.10;;;;;;5082718;28;20047;-70
2022/05/04 06:17:58;;;;;;;1.58;1.10;;;19.80;48.10;;;;;;5088940;28;20506;-69
2022/05/04 06:20:24;;;;;;;3.92;1.38;;;19.70;48.00;;;;;;5080527;28;20058;-69
2022/05/04 06:22:50;;;;;;;3.58;1.40;;;19.70;48.00;;;;;;5089579;28;20695;-69
2022/05/04 06:25:16;;;;;;;3.58;1.40;;;19.70;48.00;;;;;;5080465;28;20535;-69
2022/05/04 06:27:42;;;;;;;5.63;1.50;;;19.80;48.00;;;;;;5079112;28;20056;-70
2022/05/04 06:35:37;;;;;;;3.22;1.45;;;19.80;47.80;;;;;;5082678;28;20036;-71
2022/05/04 06:38:02;;;;;;;3.63;1.38;;;19.80;47.80;;;;;;5086402;28;20036;-71
2022/05/04 06:40:28;;;;;;;3.63;1.50;;;19.80;47.70;;;;;;5091293;28;20040;-70
2022/05/04 06:42:54;;;;;;;3.38;1.25;;;19.80;47.60;;;;;;5076991;28;20479;-69
2022/05/04 06:45:20;;;;;;;5.15;1.60;;;19.80;47.60;;;;;;5080596;28;20047;-70
2022/05/04 06:47:46;;;;;;;5.32;1.50;;;19.80;47.60;;;;;;5081492;28;20402;-69
2022/05/04 06:50:11;;;;;;;4.88;1.42;;;19.90;47.80;;;;;;5083830;28;20035;-71
2022/05/04 06:52:37;;;;;;;3.30;1.50;;;19.90;47.80;;;;;;5082630;28;20064;-71
2022/05/04 06:55:04;;;;;;;3.20;1.30;;;19.90;47.70;;;;;;5081989;28;20047;-72
2022/05/04 06:57:29;;;;;;;3.63;1.50;;;19.90;47.70;;;;;;5079411;28;20064;-69
2022/05/04 06:59:55;;;;;;;4.25;1.58;;;19.90;47.60;;;;;;5083762;28;20137;-76
2022/05/04 07:02:21;;;;;;;3.17;1.50;;;20.00;47.70;;;;;;5079771;28;20036;-69
2022/05/04 07:04:46;;;;;;;3.83;1.30;;;20.00;48.50;;;;;;5081141;28;20366;-69
2022/05/04 07:07:12;;;;;;;2.20;1.45;;;20.00;47.70;;;;;;5085530;28;20036;-73
2022/05/04 07:09:37;;;;;;;4.03;1.40;;;20.00;47.70;;;;;;5081344;28;20040;-76
2022/05/04 07:12:04;;;;;;;3.38;1.38;;;20.10;47.80;;;;;;5080720;28;20428;-71
2022/05/04 07:14:29;;;;;;;2.53;1.48;;;20.10;47.80;;;;;;5080637;28;20055;-69
2022/05/04 07:16:55;;;;;;;7.90;1.60;;;20.10;47.80;;;;;;5080209;28;20039;-71
2022/05/04 07:19:20;;;;;;;7.38;1.30;;;20.10;47.80;;;;;;5078495;28;20134;-68
2022/05/04 07:21:46;;;;;;;4.65;1.40;;;20.10;47.80;;;;;;5066976;28;20068;-69
2022/05/04 07:24:12;;;;;;;3.30;1.38;;;20.10;47.80;;;;;;5084719;28;20039;-69
2022/05/04 07:26:40;;;;;;;4.40;1.20;;;20.20;47.80;;;;;;5081641;28;20024;-71
2022/05/04 07:29:05;;;;;;;3.03;1.40;;;20.20;47.80;;;;;;5063994;28;20546;-73
2022/05/04 07:31:31;;;;;;;4.25;1.50;;;20.20;47.80;;;;;;5079879;28;20059;-70
2022/05/04 07:33:56;;;;;;;3.95;1.45;;;20.20;47.70;;;;;;5084627;28;20570;-70
2022/05/04 07:36:22;;;;;;;5.13;1.58;;;20.20;47.70;;;;;;5084591;28;20119;-70
2022/05/04 07:38:47;;;;;;;5.60;1.50;;;20.30;47.80;;;;;;5085537;28;20036;-74
2022/05/04 07:43:57;;;;;;;3.03;1.38;;;20.30;47.80;;;;;;5088412;28;20044;-74
2022/05/04 07:46:23;;;;;;;4.72;1.40;;;20.30;47.60;;;;;;5088077;28;20137;-71
2022/05/04 07:48:48;;;;;;;11.30;1.95;;;20.30;47.60;;;;;;5085326;28;20047;-71
2022/05/04 07:51:14;;;;;;;8.85;1.75;;;20.40;47.70;;;;;;5088163;28;20122;-68
2022/05/04 07:53:42;;;;;;;;;;;20.40;47.70;;;;;;5087616;28;20131;-71
2022/05/04 07:56:08;;;;;;;5.05;1.50;;;20.40;47.60;;;;;;5086811;28;20026;-71
2022/05/04 07:58:34;;;;;;;8.13;1.60;;;20.40;47.80;;;;;;5085128;28;20043;-71
2022/05/04 08:06:27;;;;;;;2.78;1.42;;;20.50;47.90;;;;;;5082364;28;20055;-72
2022/05/04 08:08:53;;;;;;;5.50;1.60;;;20.50;47.90;;;;;;5081870;28;20043;-70
2022/05/04 08:11:18;;;;;;;3.03;1.40;;;20.50;47.90;;;;;;5082728;28;20357;-69
2022/05/04 08:13:44;;;;;;;4.18;1.50;;;20.50;47.90;;;;;;5093979;27;20134;-71
2022/05/04 08:16:11;;;;;;;3.17;1.40;;;20.50;47.90;;;;;;5082906;28;20131;-69
2022/05/04 08:18:40;;;;;;;3.15;1.40;;;20.60;48.10;;;;;;5083812;28;20079;-70
2022/05/04 08:21:09;;;;;;;4.05;1.50;;;20.60;48.00;;;;;;5084134;28;20592;-70
2022/05/04 08:23:34;;;;;;;9.18;1.63;;;20.60;48.10;;;;;;5082729;28;20036;-69
2022/05/04 08:26:01;;;;;;;4.93;1.35;;;20.60;48.10;;;;;;5065789;28;20483;-69
2022/05/04 08:28:27;;;;;;;5.65;1.55;;;20.70;48.20;;;;;;5084155;28;20091;-72
2022/05/04 08:30:52;;;;;;;3.88;1.50;;;20.80;48.20;;;;;;5078053;28;20087;-69
2022/05/04 08:33:18;;;;;;;5.07;1.50;;;20.80;48.20;;;;;;5081992;28;20124;-69
2022/05/04 08:35:44;;;;;;;5.07;1.55;;;20.80;48.10;;;;;;5084110;28;20815;-69
2022/05/04 08:38:10;;;;;;;4.82;1.48;;;20.90;48.20;;;;;;5081513;28;20040;-70
2022/05/04 08:40:36;;;;;;;5.32;1.40;;;20.90;48.80;;;;;;5082071;28;20040;-69
2022/05/04 08:43:05;;;;;;;4.43;1.70;;;20.90;48.00;;;;;;5082717;28;20388;-70
2022/05/04 08:45:35;;;;;;;3.28;1.35;;;20.90;48.00;;;;;;5106327;27;20428;-69
2022/05/04 08:48:03;;;;;;;2.75;1.35;;;21.00;48.10;;;;;;5079951;28;20052;-69
2022/05/04 08:50:29;;;;;;;3.78;1.50;;;21.00;48.10;;;;;;5082861;28;20055;-69
2022/05/04 08:52:55;;;;;;;4.40;1.65;;;21.00;48.10;;;;;;5081146;28;20043;-73
2022/05/04 08:55:21;;;;;;;3.00;1.40;;;21.10;48.20;;;;;;5078499;28;20035;-73
2022/05/04 08:57:47;;;;;;;4.68;1.42;;;21.10;48.10;;;;;;5084602;28;20044;-75
2022/05/04 09:00:14;;;;;;;3.38;1.42;;;21.10;48.00;;;;;;5079552;28;20313;-75
2022/05/04 09:02:40;;;;;;;6.82;1.50;;;21.10;48.10;;;;;;5084276;28;20047;-76
2022/05/04 09:05:16;;;;;;;2.65;1.40;;;21.20;48.10;;;;;;5080184;28;20047;-71
2022/05/04 09:07:42;;;;;;;4.45;1.50;;;21.20;48.00;;;;;;5105600;27;20048;-71
2022/05/04 09:10:21;;;;;;;5.15;1.60;;;21.20;48.00;;;;;;5079658;28;20040;-72
2022/05/04 09:12:48;;;;;;;5.22;1.45;;;21.30;48.00;;;;;;5085575;28;20472;-73
2022/05/04 09:15:26;;;;;;;3.97;1.63;;;21.30;48.00;;;;;;5081733;28;20131;-70
2022/05/04 09:18:19;;;;;;;2.85;1.50;;;21.30;48.00;;;;;;5076660;28;20086;-71
2022/05/04 09:20:53;;;;;;;3.85;1.30;;;21.40;48.10;;;;;;5084334;28;20055;-76
2022/05/04 09:23:33;;;;;;;2.80;1.40;;;21.40;48.00;;;;;;5080218;28;20070;-70
2022/05/04 09:26:05;;;;;;;5.30;1.50;;;21.40;47.70;;;;;;5108319;27;20409;-73
2022/05/04 09:28:31;;;;;;;4.80;1.45;;;21.40;47.60;;;;;;5077323;28;20113;-71
2022/05/04 09:31:04;;;;;;;4.65;1.63;;;21.40;47.10;;;;;;5068664;28;20057;-70
2022/05/04 09:33:34;;;;;;;11.60;2.95;;;21.40;46.60;;;;;;5067632;28;20048;-72
2022/05/04 09:36:03;;;;;;;5.20;1.60;;;21.40;46.50;;;;;;5071611;28;20048;-71
2022/05/04 09:46:51;;;;;;;4.13;1.55;;;21.40;46.30;;;;;;5087359;28;20063;-70
2022/05/04 09:49:28;;;;;;;6.50;1.50;;;21.40;46.20;;;;;;5063690;28;20093;-71
2022/05/04 09:51:54;;;;;;;2.78;1.30;;;21.40;46.10;;;;;;5071044;28;20098;-71
2022/05/04 09:54:24;;;;;;;3.97;1.40;;;21.40;46.10;;;;;;5087148;27;20036;-72
2022/05/04 09:57:01;;;;;;;5.30;1.90;;;21.40;46.10;;;;;;5081858;28;20137;-71
2022/05/04 09:59:30;;;;;;;3.65;1.70;;;21.40;46.10;;;;;;5081924;28;20040;-71
2022/05/04 10:01:58;;;;;;;5.60;1.45;;;21.40;46.10;;;;;;5078686;28;20561;-73
2022/05/04 10:04:24;;;;;;;;;;;21.40;46.00;;;;;;5085570;28;20040;-70
2022/05/04 10:06:51;;;;;;;5.03;1.60;;;21.40;46.00;;;;;;5082742;28;19966;-73
2022/05/04 10:09:17;;;;;;;6.65;1.77;;;21.50;46.10;;;;;;5083006;28;20632;-74
2022/05/04 10:11:43;;;;;;;6.32;1.55;;;21.50;46.10;;;;;;5083859;28;20040;-70
2022/05/04 10:14:10;;;;;;;5.03;1.60;;;21.50;46.10;;;;;;5079505;28;20628;-75
2022/05/04 10:17:07;;;;;;;2.95;1.50;;;21.50;46.10;;;;;;5081625;28;20055;-72
2022/05/04 10:19:59;;;;;;;3.08;1.60;;;21.50;46.00;;;;;;5081338;28;20059;-73
2022/05/04 10:22:31;;;;;;;3.28;1.52;;;21.50;46.00;;;;;;5082476;28;20118;-75
2022/05/04 10:25:00;;;;;;;6.00;1.50;;;21.50;46.00;;;;;;5084318;28;20045;-75
2022/05/04 10:27:27;;;;;;;2.97;1.40;;;21.60;46.10;;;;;;5077276;28;20141;-70
2022/05/04 10:32:50;;;;;;;4.97;1.40;;;21.60;46.10;;;;;;5089793;27;20135;-73
2022/05/04 10:35:34;;;;;;;4.20;1.47;;;21.60;46.30;;;;;;5082174;28;20028;-73
2022/05/04 10:37:59;;;;;;;5.65;1.42;;;21.60;46.40;;;;;;5082741;28;20308;-73
2022/05/04 10:40:45;;;;;;;3.47;1.40;;;21.60;46.40;;;;;;5080668;28;20155;-71
2022/05/04 10:43:17;;;;;;;6.55;1.88;;;21.60;46.30;;;;;;5087279;28;20411;-72
2022/05/04 10:45:45;;;;;;;10.32;1.88;;;21.60;46.30;;;;;;5083313;28;20067;-71
2022/05/04 10:48:19;;;;;;;5.70;1.60;;;21.60;46.30;;;;;;5079962;28;20067;-75
2022/05/04 10:50:55;;;;;;;6.60;1.60;;;21.60;46.30;;;;;;5082379;28;20047;-71
2022/05/04 10:53:23;;;;;;;3.47;1.40;;;21.60;46.30;;;;;;5080195;28;20065;-72
2022/05/04 10:56:01;;;;;;;8.38;1.70;;;21.70;46.30;;;;;;5080704;28;20083;-71
2022/05/04 10:58:33;;;;;;;5.07;1.50;;;21.70;46.30;;;;;;5074040;28;20395;-73
2022/05/04 11:01:31;;;;;;;7.50;1.58;;;21.70;46.50;;;;;;5072522;28;20127;-74
2022/05/04 11:04:05;;;;;;;3.63;1.70;;;21.70;46.60;;;;;;5076081;28;20685;-76
2022/05/04 11:06:40;;;;;;;4.45;1.60;;;21.70;46.60;;;;;;5105936;27;20040;-75
2022/05/04 11:09:11;;;;;;;7.13;1.85;;;21.70;46.60;;;;;;5078221;28;21090;-70
2022/05/04 11:11:39;;;;;;;5.78;1.63;;;21.70;46.60;;;;;;5078839;28;20040;-73
2022/05/04 11:14:07;;;;;;;7.35;2.00;;;21.80;46.60;;;;;;5084988;28;20040;-72
2022/05/04 11:16:33;;;;;;;5.25;2.00;;;21.80;46.60;;;;;;5085963;28;20790;-74
2022/05/04 11:19:00;;;;;;;5.22;1.48;;;21.80;46.40;;;;;;5087920;28;20044;-72
2022/05/04 11:21:28;;;;;;;5.95;1.95;;;21.80;46.30;;;;;;5081622;28;20063;-70
2022/05/04 11:23:56;;;;;;;5.45;1.60;;;21.80;46.20;;;;;;5084130;28;20868;-73
2022/05/04 11:26:27;;;;;;;4.50;1.67;;;21.80;46.30;;;;;;5083537;28;20040;-72
2022/05/04 11:28:55;;;;;;;7.47;2.20;;;21.80;46.30;;;;;;5085847;28;20095;-72
2022/05/04 11:31:21;;;;;;;7.75;1.80;;;21.80;46.30;;;;;;5082297;28;20044;-72
2022/05/04 11:33:48;;;;;;;8.23;2.10;;;21.80;46.40;;;;;;5084813;28;20123;-73
2022/05/04 11:36:18;;;;;;;3.17;1.60;;;21.80;46.30;;;;;;5086802;28;20043;-71
2022/05/04 11:38:47;;;;;;;7.00;2.22;;;21.90;46.40;;;;;;5092551;28;20327;-71
2022/05/04 11:41:14;;;;;;;4.40;1.80;;;21.80;46.30;;;;;;5084690;28;20068;-72
2022/05/04 11:43:40;;;;;;;6.53;2.10;;;21.80;46.30;;;;;;5082441;28;20567;-71
2022/05/04 11:46:11;;;;;;;5.35;1.83;;;21.80;46.30;;;;;;5083847;28;20044;-72
2022/05/04 11:48:42;;;;;;;4.40;1.85;;;21.90;46.40;;;;;;5084569;28;20051;-70
2022/05/04 11:51:09;;;;;;;9.98;2.25;;;21.90;46.30;;;;;;5082285;28;20499;-73
2022/05/04 11:53:35;;;;;;;7.65;1.80;;;21.90;46.30;;;;;;5083214;28;20039;-70
2022/05/04 11:56:05;;;;;;;3.42;1.65;;;21.90;46.30;;;;;;5090001;28;20048;-71
2022/05/04 11:58:32;;;;;;;4.00;1.80;;;22.00;46.30;;;;;;5087471;28;20133;-70
2022/05/04 12:00:59;;;;;;;3.70;1.52;;;22.00;46.10;;;;;;5089277;28;20062;-71
2022/05/04 12:03:25;;;;;;;2.88;1.58;;;22.00;46.10;;;;;;5085630;28;20085;-70
2022/05/04 12:05:53;;;;;;;6.18;2.25;;;22.00;46.00;;;;;;5089397;28;20044;-71
2022/05/04 12:08:19;;;;;;;4.28;1.98;;;22.00;45.90;;;;;;5086403;28;20036;-70
2022/05/04 12:10:48;;;;;;;5.05;1.80;;;22.00;45.80;;;;;;5089010;28;20409;-71
2022/05/04 12:13:15;;;;;;;8.90;1.95;;;22.10;45.70;;;;;;5086651;28;20757;-71
2022/05/04 12:15:42;;;;;;;6.90;2.78;;;22.10;45.70;;;;;;5084216;28;20075;-75
2022/05/04 12:18:09;;;;;;;4.40;1.80;;;22.00;45.50;;;;;;5085347;28;20044;-71
2022/05/04 12:20:35;;;;;;;5.78;1.80;;;22.10;45.60;;;;;;5092823;28;20111;-72
2022/05/04 12:23:02;;;;;;;6.85;2.35;;;22.10;45.40;;;;;;5099841;28;20063;-71
2022/05/04 12:25:28;;;;;;;4.78;1.60;;;22.10;45.20;;;;;;5094924;28;20534;-71
2022/05/04 12:27:56;;;;;;;5.93;1.90;;;22.10;45.10;;;;;;5090272;28;20059;-71
2022/05/04 12:33:08;;;;;;;4.97;1.92;;;22.20;45.00;;;;;;5090389;28;20048;-72
2022/05/04 12:35:45;;;;;;;5.78;1.90;;;22.20;44.80;;;;;;5086843;28;20039;-72
2022/05/04 12:38:15;;;;;;;4.82;1.98;;;22.30;44.80;;;;;;5086536;28;20136;-70
2022/05/04 12:40:41;;;;;;;8.40;1.80;;;22.30;44.80;;;;;;5093043;28;20050;-71
2022/05/04 12:43:07;;;;;;;6.15;1.90;;;22.40;44.60;;;;;;5083843;28;20778;-72
2022/05/04 12:45:35;;;;;;;7.35;2.00;;;22.60;44.40;;;;;;5079207;28;20094;-72
2022/05/04 12:48:04;;;;;;;4.65;1.73;;;22.80;43.90;;;;;;5084876;28;20098;-71
2022/05/04 12:50:29;;;;;;;2.67;1.60;;;23.20;43.30;;;;;;5115301;27;20040;-72
2022/05/04 12:52:56;;;;;;;4.68;1.83;;;23.50;42.50;;;;;;5084703;28;20105;-73
2022/05/04 12:56:45;;;;;;;5.53;1.60;;;23.70;41.90;;;;;;5083703;28;20567;-71
2022/05/04 12:58:08;;;;;;;4.80;1.98;;;23.70;41.60;;;;;;5091273;28;20495;-72
2022/05/04 13:00:34;;;;;;;8.52;2.08;;;23.80;41.50;;;;;;5084711;28;20122;-70
2022/05/04 13:03:00;;;;;;;3.95;1.77;;;23.80;41.50;;;;;;5084875;28;20507;-70
2022/05/04 13:05:25;;;;;;;6.15;1.92;;;23.70;41.60;;;;;;5084281;28;20127;-70
2022/05/04 13:07:51;;;;;;;3.58;1.70;;;23.50;41.80;;;;;;5083970;28;20052;-71
2022/05/04 13:10:16;;;;;;;6.35;1.80;;;23.50;42.00;;;;;;5082019;28;20109;-71
2022/05/04 13:12:42;;;;;;;3.70;1.63;;;23.60;42.60;;;;;;5084221;28;20040;-72
2022/05/04 13:15:08;;;;;;;4.32;1.80;;;23.70;41.50;;;;;;5090105;28;20040;-71
2022/05/04 13:17:33;;;;;;;5.45;1.90;;;23.60;41.40;;;;;;5084707;28;20040;-72
2022/05/04 13:19:59;;;;;;;6.80;1.83;;;23.50;41.60;;;;;;5084090;28;20505;-72
2022/05/04 13:22:24;;;;;;;3.03;1.50;;;23.50;41.80;;;;;;5082306;28;20376;-72
2022/05/04 13:24:50;;;;;;;4.30;2.00;;;23.40;42.00;;;;;;5082286;28;20086;-72
2022/05/04 13:27:16;;;;;;;6.72;2.05;;;23.20;42.10;;;;;;5083608;28;20412;-71